ADDS METAR Data INFO
IDs: Format: Raw Decoded Include TAF

Data at: 0058 UTC 21 Oct 2017

METAR for:KPIE (St Petersburg/Clearw, FL, US)
Text:KPIE 210053Z 08008KT 10SM CLR 27/20 A3007 RMK AO2 SLP184 T02670200
Temperature: 26.7°C ( 80°F)
Dewpoint: 20.0°C ( 68°F) [RH = 67%]
Pressure (altimeter):30.07 inches Hg (1018.4 mb) [Sea level pressure: 1018.4 mb]
Winds:from the E (80 degrees) at 9 MPH (8 knots; 4.1 m/s)
Visibility:10 or more sm (16+ km)
Ceiling:at least 12,000 feet AGL
Clouds:sky clear below 12,000 feet AGL